Terminal Aerodrome Forecast
Issued by NWS

Home | Current Version | Previous Version | Text Only | Print | Product List | Glossary On
Versions: 1 2 3 4 5 6 7 8 9 10 11 12 13 14
000
FTAK31 PAJN 221700
TAFAPG
TAF
PAPG 221736Z 2218/2318 VRB03KT P6SM -SHRA FEW008 SCT030 OVC040
     FM222100 06005KT P6SM -SHRA SCT035 OVC060
     FM230300 10004KT P6SM VCSH SCT050 OVC070
     FM230800 00000KT P6SM BKN080
     FM231200 00000KT 5SM BR SCT003 SCT100
     FM231500 00000KT 2SM BR SCT002
      AMD LTD TO CLD VIS AND WIND 2306/2315=

USA.gov is the U.S. government's official web portal to all federal, state and local government web resources and services.